sensor_id;sensor_type;location;lat;lon;timestamp;P1;durP1;ratioP1;P2;durP2;ratioP2
21095;SDS011;10706;49.036;12.112;2022-11-15T00:00:44;20.60;;;9.83;;
21095;SDS011;10706;49.036;12.112;2022-11-15T00:03:12;25.80;;;11.03;;
21095;SDS011;10706;49.036;12.112;2022-11-15T00:05:40;24.23;;;10.20;;
21095;SDS011;10706;49.036;12.112;2022-11-15T00:08:06;23.30;;;10.57;;
21095;SDS011;10706;49.036;12.112;2022-11-15T00:10:32;23.30;;;10.30;;
21095;SDS011;10706;49.036;12.112;2022-11-15T00:12:57;20.27;;;10.00;;
21095;SDS011;10706;49.036;12.112;2022-11-15T00:15:23;21.97;;;10.00;;
21095;SDS011;10706;49.036;12.112;2022-11-15T00:17:49;25.90;;;11.13;;
21095;SDS011;10706;49.036;12.112;2022-11-15T00:20:15;23.03;;;11.27;;
21095;SDS011;10706;49.036;12.112;2022-11-15T00:22:42;24.53;;;11.27;;
21095;SDS011;10706;49.036;12.112;2022-11-15T00:25:08;23.17;;;10.90;;
21095;SDS011;10706;49.036;12.112;2022-11-15T00:27:33;26.10;;;10.60;;
21095;SDS011;10706;49.036;12.112;2022-11-15T00:30:00;26.50;;;11.53;;
21095;SDS011;10706;49.036;12.112;2022-11-15T00:32:25;26.33;;;12.97;;
21095;SDS011;10706;49.036;12.112;2022-11-15T00:34:51;27.13;;;12.13;;
21095;SDS011;10706;49.036;12.112;2022-11-15T00:37:17;27.23;;;11.37;;
21095;SDS011;10706;49.036;12.112;2022-11-15T00:39:42;24.33;;;12.23;;
21095;SDS011;10706;49.036;12.112;2022-11-15T00:42:08;30.23;;;12.00;;
21095;SDS011;10706;49.036;12.112;2022-11-15T00:44:34;24.37;;;10.27;;
21095;SDS011;10706;49.036;12.112;2022-11-15T00:47:00;26.87;;;11.20;;
21095;SDS011;10706;49.036;12.112;2022-11-15T00:49:25;21.80;;;10.03;;
21095;SDS011;10706;49.036;12.112;2022-11-15T00:51:51;24.63;;;10.67;;
21095;SDS011;10706;49.036;12.112;2022-11-15T00:54:17;26.97;;;10.63;;
21095;SDS011;10706;49.036;12.112;2022-11-15T00:56:42;23.50;;;10.63;;
21095;SDS011;10706;49.036;12.112;2022-11-15T00:59:08;26.50;;;10.73;;
21095;SDS011;10706;49.036;12.112;2022-11-15T01:01:34;23.93;;;11.10;;
21095;SDS011;10706;49.036;12.112;2022-11-15T01:04:00;21.80;;;10.80;;
21095;SDS011;10706;49.036;12.112;2022-11-15T01:06:25;21.50;;;10.33;;
21095;SDS011;10706;49.036;12.112;2022-11-15T01:08:51;22.97;;;10.27;;
21095;SDS011;10706;49.036;12.112;2022-11-15T01:11:17;24.60;;;10.63;;
21095;SDS011;10706;49.036;12.112;2022-11-15T01:13:43;27.53;;;12.37;;
21095;SDS011;10706;49.036;12.112;2022-11-15T01:16:12;22.63;;;10.63;;
21095;SDS011;10706;49.036;12.112;2022-11-15T01:18:42;27.77;;;11.47;;
21095;SDS011;10706;49.036;12.112;2022-11-15T01:21:09;27.87;;;11.93;;
21095;SDS011;10706;49.036;12.112;2022-11-15T01:23:38;25.77;;;12.07;;
21095;SDS011;10706;49.036;12.112;2022-11-15T01:26:05;25.93;;;10.87;;
21095;SDS011;10706;49.036;12.112;2022-11-15T01:28:36;24.00;;;10.37;;
21095;SDS011;10706;49.036;12.112;2022-11-15T01:31:04;23.17;;;11.07;;
21095;SDS011;10706;49.036;12.112;2022-11-15T01:33:42;23.57;;;11.20;;
21095;SDS011;10706;49.036;12.112;2022-11-15T01:36:19;20.60;;;10.47;;
21095;SDS011;10706;49.036;12.112;2022-11-15T01:38:47;26.43;;;10.97;;
21095;SDS011;10706;49.036;12.112;2022-11-15T01:41:21;23.17;;;9.70;;
21095;SDS011;10706;49.036;12.112;2022-11-15T01:43:56;22.87;;;10.27;;
21095;SDS011;10706;49.036;12.112;2022-11-15T01:47:02;23.47;;;9.63;;
21095;SDS011;10706;49.036;12.112;2022-11-15T01:49:34;24.03;;;9.97;;
21095;SDS011;10706;49.036;12.112;2022-11-15T01:52:03;26.17;;;10.83;;
21095;SDS011;10706;49.036;12.112;2022-11-15T01:54:33;27.47;;;10.80;;
21095;SDS011;10706;49.036;12.112;2022-11-15T01:57:01;21.80;;;10.37;;
21095;SDS011;10706;49.036;12.112;2022-11-15T01:59:32;25.50;;;11.37;;
21095;SDS011;10706;49.036;12.112;2022-11-15T02:01:59;23.50;;;10.33;;
21095;SDS011;10706;49.036;12.112;2022-11-15T02:04:26;23.77;;;10.40;;
21095;SDS011;10706;49.036;12.112;2022-11-15T02:06:56;25.80;;;10.63;;
21095;SDS011;10706;49.036;12.112;2022-11-15T02:09:23;25.20;;;11.03;;
21095;SDS011;10706;49.036;12.112;2022-11-15T02:11:49;22.73;;;10.80;;
21095;SDS011;10706;49.036;12.112;2022-11-15T02:14:17;26.23;;;10.93;;
21095;SDS011;10706;49.036;12.112;2022-11-15T02:16:51;21.00;;;10.33;;
21095;SDS011;10706;49.036;12.112;2022-11-15T02:29:10;23.07;;;10.27;;
21095;SDS011;10706;49.036;12.112;2022-11-15T02:34:38;21.20;;;10.27;;
21095;SDS011;10706;49.036;12.112;2022-11-15T02:40:11;25.63;;;10.87;;
21095;SDS011;10706;49.036;12.112;2022-11-15T02:42:50;24.47;;;9.20;;
21095;SDS011;10706;49.036;12.112;2022-11-15T02:45:42;23.37;;;11.30;;
21095;SDS011;10706;49.036;12.112;2022-11-15T02:48:15;25.80;;;11.57;;
21095;SDS011;10706;49.036;12.112;2022-11-15T02:50:42;23.27;;;11.23;;
21095;SDS011;10706;49.036;12.112;2022-11-15T02:53:08;25.37;;;10.90;;
21095;SDS011;10706;49.036;12.112;2022-11-15T02:55:35;28.10;;;10.43;;
21095;SDS011;10706;49.036;12.112;2022-11-15T02:58:26;24.77;;;10.17;;
21095;SDS011;10706;49.036;12.112;2022-11-15T03:01:37;23.20;;;10.03;;
21095;SDS011;10706;49.036;12.112;2022-11-15T03:07:29;24.30;;;9.93;;
21095;SDS011;10706;49.036;12.112;2022-11-15T03:12:46;17.80;;;9.20;;
21095;SDS011;10706;49.036;12.112;2022-11-15T03:15:29;24.97;;;11.30;;
21095;SDS011;10706;49.036;12.112;2022-11-15T03:17:59;19.37;;;9.07;;
21095;SDS011;10706;49.036;12.112;2022-11-15T03:20:32;21.83;;;9.83;;
21095;SDS011;10706;49.036;12.112;2022-11-15T03:23:03;20.77;;;11.20;;
21095;SDS011;10706;49.036;12.112;2022-11-15T03:25:33;24.47;;;10.57;;
21095;SDS011;10706;49.036;12.112;2022-11-15T03:28:04;18.80;;;10.20;;
21095;SDS011;10706;49.036;12.112;2022-11-15T03:30:34;24.20;;;11.07;;
21095;SDS011;10706;49.036;12.112;2022-11-15T03:33:02;22.50;;;10.07;;
21095;SDS011;10706;49.036;12.112;2022-11-15T03:35:31;21.17;;;9.47;;
21095;SDS011;10706;49.036;12.112;2022-11-15T03:38:21;21.50;;;10.67;;
21095;SDS011;10706;49.036;12.112;2022-11-15T03:40:55;19.67;;;9.30;;
21095;SDS011;10706;49.036;12.112;2022-11-15T03:43:47;21.37;;;9.00;;
21095;SDS011;10706;49.036;12.112;2022-11-15T03:46:33;20.80;;;10.30;;
21095;SDS011;10706;49.036;12.112;2022-11-15T03:49:14;19.27;;;9.17;;
21095;SDS011;10706;49.036;12.112;2022-11-15T03:52:05;23.20;;;9.40;;
21095;SDS011;10706;49.036;12.112;2022-11-15T03:54:31;19.20;;;9.33;;
21095;SDS011;10706;49.036;12.112;2022-11-15T03:56:57;24.90;;;9.30;;
21095;SDS011;10706;49.036;12.112;2022-11-15T03:59:24;19.17;;;8.50;;
21095;SDS011;10706;49.036;12.112;2022-11-15T04:01:50;18.97;;;9.30;;
21095;SDS011;10706;49.036;12.112;2022-11-15T04:04:16;22.03;;;10.13;;
21095;SDS011;10706;49.036;12.112;2022-11-15T04:06:42;20.67;;;9.27;;
21095;SDS011;10706;49.036;12.112;2022-11-15T04:09:08;26.17;;;10.63;;
21095;SDS011;10706;49.036;12.112;2022-11-15T04:11:34;22.17;;;10.13;;
21095;SDS011;10706;49.036;12.112;2022-11-15T04:14:00;23.60;;;10.37;;
21095;SDS011;10706;49.036;12.112;2022-11-15T04:16:26;21.47;;;9.60;;
21095;SDS011;10706;49.036;12.112;2022-11-15T04:18:52;22.57;;;11.23;;
21095;SDS011;10706;49.036;12.112;2022-11-15T04:21:37;22.23;;;10.27;;
21095;SDS011;10706;49.036;12.112;2022-11-15T04:24:21;24.17;;;10.63;;
21095;SDS011;10706;49.036;12.112;2022-11-15T04:26:47;25.03;;;10.57;;
21095;SDS011;10706;49.036;12.112;2022-11-15T04:29:13;22.80;;;9.80;;
21095;SDS011;10706;49.036;12.112;2022-11-15T04:31:57;25.50;;;10.50;;
21095;SDS011;10706;49.036;12.112;2022-11-15T04:34:23;20.13;;;10.30;;
21095;SDS011;10706;49.036;12.112;2022-11-15T04:36:49;19.10;;;9.07;;
21095;SDS011;10706;49.036;12.112;2022-11-15T04:39:34;23.23;;;9.13;;
21095;SDS011;10706;49.036;12.112;2022-11-15T04:42:00;22.57;;;9.37;;
21095;SDS011;10706;49.036;12.112;2022-11-15T04:44:26;22.47;;;9.50;;
21095;SDS011;10706;49.036;12.112;2022-11-15T04:46:52;21.87;;;9.73;;
21095;SDS011;10706;49.036;12.112;2022-11-15T04:49:18;20.03;;;9.23;;
21095;SDS011;10706;49.036;12.112;2022-11-15T04:51:44;21.03;;;9.07;;
21095;SDS011;10706;49.036;12.112;2022-11-15T04:54:11;20.33;;;9.07;;
21095;SDS011;10706;49.036;12.112;2022-11-15T04:56:37;21.07;;;9.07;;
21095;SDS011;10706;49.036;12.112;2022-11-15T04:59:03;20.13;;;8.97;;
21095;SDS011;10706;49.036;12.112;2022-11-15T05:01:29;19.50;;;9.40;;
21095;SDS011;10706;49.036;12.112;2022-11-15T05:03:55;26.10;;;9.60;;
21095;SDS011;10706;49.036;12.112;2022-11-15T05:06:40;26.70;;;10.80;;
21095;SDS011;10706;49.036;12.112;2022-11-15T05:09:05;28.83;;;10.50;;
21095;SDS011;10706;49.036;12.112;2022-11-15T05:11:31;20.33;;;9.40;;
21095;SDS011;10706;49.036;12.112;2022-11-15T05:13:57;24.63;;;9.73;;
21095;SDS011;10706;49.036;12.112;2022-11-15T05:16:23;22.23;;;10.00;;
21095;SDS011;10706;49.036;12.112;2022-11-15T05:18:53;23.53;;;10.60;;
21095;SDS011;10706;49.036;12.112;2022-11-15T05:21:19;23.80;;;10.90;;
21095;SDS011;10706;49.036;12.112;2022-11-15T05:23:45;25.77;;;10.40;;
21095;SDS011;10706;49.036;12.112;2022-11-15T05:26:12;24.77;;;10.63;;
21095;SDS011;10706;49.036;12.112;2022-11-15T05:28:39;24.70;;;9.57;;
21095;SDS011;10706;49.036;12.112;2022-11-15T05:31:06;24.37;;;10.53;;
21095;SDS011;10706;49.036;12.112;2022-11-15T05:33:38;23.90;;;9.83;;
21095;SDS011;10706;49.036;12.112;2022-11-15T05:38:48;38.77;;;16.17;;
21095;SDS011;10706;49.036;12.112;2022-11-15T05:41:15;35.30;;;16.97;;
21095;SDS011;10706;49.036;12.112;2022-11-15T05:43:45;28.43;;;13.57;;
21095;SDS011;10706;49.036;12.112;2022-11-15T05:46:12;31.27;;;12.57;;
21095;SDS011;10706;49.036;12.112;2022-11-15T05:48:39;25.83;;;12.00;;
21095;SDS011;10706;49.036;12.112;2022-11-15T05:51:10;28.77;;;12.67;;
21095;SDS011;10706;49.036;12.112;2022-11-15T05:53:40;26.33;;;12.03;;
21095;SDS011;10706;49.036;12.112;2022-11-15T05:56:06;26.10;;;11.57;;
21095;SDS011;10706;49.036;12.112;2022-11-15T05:58:33;29.30;;;12.20;;
21095;SDS011;10706;49.036;12.112;2022-11-15T06:01:00;27.00;;;11.83;;
21095;SDS011;10706;49.036;12.112;2022-11-15T06:03:27;26.50;;;11.70;;
21095;SDS011;10706;49.036;12.112;2022-11-15T06:05:53;29.27;;;12.80;;
21095;SDS011;10706;49.036;12.112;2022-11-15T06:08:19;28.90;;;12.00;;
21095;SDS011;10706;49.036;12.112;2022-11-15T06:10:45;33.07;;;13.13;;
21095;SDS011;10706;49.036;12.112;2022-11-15T06:13:11;30.10;;;13.00;;
21095;SDS011;10706;49.036;12.112;2022-11-15T06:15:37;25.77;;;10.83;;
21095;SDS011;10706;49.036;12.112;2022-11-15T06:18:03;27.40;;;12.53;;
21095;SDS011;10706;49.036;12.112;2022-11-15T06:20:29;27.27;;;11.93;;
21095;SDS011;10706;49.036;12.112;2022-11-15T06:22:56;22.07;;;11.03;;
21095;SDS011;10706;49.036;12.112;2022-11-15T06:25:23;23.37;;;9.50;;
21095;SDS011;10706;49.036;12.112;2022-11-15T06:27:57;20.20;;;9.77;;
21095;SDS011;10706;49.036;12.112;2022-11-15T06:30:24;22.80;;;9.77;;
21095;SDS011;10706;49.036;12.112;2022-11-15T06:32:51;24.37;;;10.87;;
21095;SDS011;10706;49.036;12.112;2022-11-15T06:35:23;25.00;;;10.20;;
21095;SDS011;10706;49.036;12.112;2022-11-15T06:37:49;22.17;;;10.17;;
21095;SDS011;10706;49.036;12.112;2022-11-15T06:40:15;21.83;;;10.03;;
21095;SDS011;10706;49.036;12.112;2022-11-15T06:42:42;22.67;;;11.40;;
21095;SDS011;10706;49.036;12.112;2022-11-15T06:45:08;25.50;;;12.27;;
21095;SDS011;10706;49.036;12.112;2022-11-15T06:47:34;25.20;;;11.83;;
21095;SDS011;10706;49.036;12.112;2022-11-15T06:49:59;29.90;;;12.90;;
21095;SDS011;10706;49.036;12.112;2022-11-15T06:52:25;25.27;;;11.20;;
21095;SDS011;10706;49.036;12.112;2022-11-15T06:54:51;19.77;;;9.07;;
21095;SDS011;10706;49.036;12.112;2022-11-15T06:57:17;20.83;;;9.20;;
21095;SDS011;10706;49.036;12.112;2022-11-15T06:59:43;29.10;;;10.83;;
21095;SDS011;10706;49.036;12.112;2022-11-15T07:02:12;21.77;;;9.70;;
21095;SDS011;10706;49.036;12.112;2022-11-15T07:04:38;31.23;;;12.60;;
21095;SDS011;10706;49.036;12.112;2022-11-15T07:07:05;25.00;;;10.97;;
21095;SDS011;10706;49.036;12.112;2022-11-15T07:09:31;22.33;;;10.73;;
21095;SDS011;10706;49.036;12.112;2022-11-15T07:11:57;25.17;;;10.53;;
21095;SDS011;10706;49.036;12.112;2022-11-15T07:14:23;27.23;;;10.67;;
21095;SDS011;10706;49.036;12.112;2022-11-15T07:16:49;22.20;;;10.73;;
21095;SDS011;10706;49.036;12.112;2022-11-15T07:19:15;26.40;;;11.20;;
21095;SDS011;10706;49.036;12.112;2022-11-15T07:21:41;24.07;;;10.33;;
21095;SDS011;10706;49.036;12.112;2022-11-15T07:24:07;26.70;;;10.70;;
21095;SDS011;10706;49.036;12.112;2022-11-15T07:26:33;22.77;;;10.77;;
21095;SDS011;10706;49.036;12.112;2022-11-15T07:28:59;22.70;;;9.83;;
21095;SDS011;10706;49.036;12.112;2022-11-15T07:31:25;23.63;;;8.90;;
21095;SDS011;10706;49.036;12.112;2022-11-15T07:33:52;24.00;;;9.70;;
21095;SDS011;10706;49.036;12.112;2022-11-15T07:36:18;22.57;;;10.20;;
21095;SDS011;10706;49.036;12.112;2022-11-15T07:38:44;23.87;;;9.47;;
21095;SDS011;10706;49.036;12.112;2022-11-15T07:41:10;25.33;;;10.33;;
21095;SDS011;10706;49.036;12.112;2022-11-15T07:43:36;20.43;;;9.97;;
21095;SDS011;10706;49.036;12.112;2022-11-15T07:46:06;19.77;;;9.43;;
21095;SDS011;10706;49.036;12.112;2022-11-15T07:48:34;20.83;;;9.33;;
21095;SDS011;10706;49.036;12.112;2022-11-15T07:51:02;21.60;;;9.23;;
21095;SDS011;10706;49.036;12.112;2022-11-15T07:53:28;20.67;;;9.07;;
21095;SDS011;10706;49.036;12.112;2022-11-15T07:55:54;20.90;;;9.97;;
21095;SDS011;10706;49.036;12.112;2022-11-15T07:58:20;19.67;;;9.07;;
21095;SDS011;10706;49.036;12.112;2022-11-15T08:00:46;21.40;;;10.50;;
21095;SDS011;10706;49.036;12.112;2022-11-15T08:03:13;25.33;;;10.50;;
21095;SDS011;10706;49.036;12.112;2022-11-15T08:05:41;24.00;;;9.50;;
21095;SDS011;10706;49.036;12.112;2022-11-15T08:08:14;23.50;;;11.13;;
21095;SDS011;10706;49.036;12.112;2022-11-15T08:10:40;24.33;;;11.27;;
21095;SDS011;10706;49.036;12.112;2022-11-15T08:13:07;26.97;;;12.23;;
21095;SDS011;10706;49.036;12.112;2022-11-15T08:15:36;24.17;;;12.23;;
21095;SDS011;10706;49.036;12.112;2022-11-15T08:18:04;20.37;;;10.73;;
21095;SDS011;10706;49.036;12.112;2022-11-15T08:20:33;21.27;;;10.10;;
21095;SDS011;10706;49.036;12.112;2022-11-15T08:23:01;21.10;;;9.73;;
21095;SDS011;10706;49.036;12.112;2022-11-15T08:25:29;26.00;;;10.57;;
21095;SDS011;10706;49.036;12.112;2022-11-15T08:27:57;22.53;;;10.20;;
21095;SDS011;10706;49.036;12.112;2022-11-15T08:30:29;25.47;;;10.40;;
21095;SDS011;10706;49.036;12.112;2022-11-15T08:32:56;24.53;;;10.27;;
21095;SDS011;10706;49.036;12.112;2022-11-15T08:35:23;23.97;;;10.80;;
21095;SDS011;10706;49.036;12.112;2022-11-15T08:37:49;22.17;;;10.40;;
21095;SDS011;10706;49.036;12.112;2022-11-15T08:40:17;19.30;;;10.23;;
21095;SDS011;10706;49.036;12.112;2022-11-15T08:42:45;20.00;;;9.23;;
21095;SDS011;10706;49.036;12.112;2022-11-15T08:45:12;23.37;;;9.87;;
21095;SDS011;10706;49.036;12.112;2022-11-15T08:47:38;20.17;;;9.60;;
21095;SDS011;10706;49.036;12.112;2022-11-15T08:50:04;18.00;;;8.63;;
21095;SDS011;10706;49.036;12.112;2022-11-15T08:52:31;19.93;;;8.60;;
21095;SDS011;10706;49.036;12.112;2022-11-15T08:54:57;17.03;;;8.60;;
21095;SDS011;10706;49.036;12.112;2022-11-15T08:57:23;17.67;;;8.03;;
21095;SDS011;10706;49.036;12.112;2022-11-15T08:59:49;18.23;;;8.03;;
21095;SDS011;10706;49.036;12.112;2022-11-15T09:02:15;18.83;;;9.07;;
21095;SDS011;10706;49.036;12.112;2022-11-15T09:04:42;25.03;;;8.33;;
21095;SDS011;10706;49.036;12.112;2022-11-15T09:07:10;19.50;;;8.20;;
21095;SDS011;10706;49.036;12.112;2022-11-15T09:09:36;21.50;;;9.70;;
21095;SDS011;10706;49.036;12.112;2022-11-15T09:12:03;19.20;;;8.33;;
21095;SDS011;10706;49.036;12.112;2022-11-15T09:14:30;22.83;;;9.60;;
21095;SDS011;10706;49.036;12.112;2022-11-15T09:16:56;20.97;;;9.23;;
21095;SDS011;10706;49.036;12.112;2022-11-15T09:19:23;19.03;;;8.90;;
21095;SDS011;10706;49.036;12.112;2022-11-15T09:21:49;21.57;;;9.77;;
21095;SDS011;10706;49.036;12.112;2022-11-15T09:24:15;21.17;;;9.17;;
21095;SDS011;10706;49.036;12.112;2022-11-15T09:26:42;15.83;;;7.87;;
21095;SDS011;10706;49.036;12.112;2022-11-15T09:29:09;16.97;;;7.73;;
21095;SDS011;10706;49.036;12.112;2022-11-15T09:31:35;19.77;;;7.57;;
21095;SDS011;10706;49.036;12.112;2022-11-15T09:34:01;18.63;;;8.10;;
21095;SDS011;10706;49.036;12.112;2022-11-15T09:36:27;16.67;;;8.30;;
21095;SDS011;10706;49.036;12.112;2022-11-15T09:38:53;21.40;;;8.80;;
21095;SDS011;10706;49.036;12.112;2022-11-15T09:41:30;17.90;;;8.23;;
21095;SDS011;10706;49.036;12.112;2022-11-15T09:44:31;17.97;;;8.10;;
21095;SDS011;10706;49.036;12.112;2022-11-15T09:47:36;17.20;;;8.27;;
21095;SDS011;10706;49.036;12.112;2022-11-15T09:56:46;20.23;;;8.77;;
21095;SDS011;10706;49.036;12.112;2022-11-15T10:04:33;19.07;;;9.23;;
21095;SDS011;10706;49.036;12.112;2022-11-15T10:07:14;20.27;;;9.50;;
21095;SDS011;10706;49.036;12.112;2022-11-15T10:10:09;23.13;;;9.53;;
21095;SDS011;10706;49.036;12.112;2022-11-15T10:12:52;24.00;;;10.23;;
21095;SDS011;10706;49.036;12.112;2022-11-15T10:15:19;21.37;;;10.23;;
21095;SDS011;10706;49.036;12.112;2022-11-15T10:17:58;22.67;;;10.57;;
21095;SDS011;10706;49.036;12.112;2022-11-15T10:20:44;20.47;;;9.50;;
21095;SDS011;10706;49.036;12.112;2022-11-15T10:23:21;20.90;;;9.87;;
21095;SDS011;10706;49.036;12.112;2022-11-15T10:25:53;22.73;;;10.53;;
21095;SDS011;10706;49.036;12.112;2022-11-15T10:28:30;19.03;;;10.17;;
21095;SDS011;10706;49.036;12.112;2022-11-15T10:30:57;24.40;;;9.83;;
21095;SDS011;10706;49.036;12.112;2022-11-15T10:41:18;27.70;;;10.17;;
21095;SDS011;10706;49.036;12.112;2022-11-15T10:49:25;27.23;;;11.33;;
21095;SDS011;10706;49.036;12.112;2022-11-15T10:51:56;21.43;;;9.70;;
21095;SDS011;10706;49.036;12.112;2022-11-15T10:54:25;20.80;;;10.03;;
21095;SDS011;10706;49.036;12.112;2022-11-15T10:56:59;22.73;;;10.43;;
21095;SDS011;10706;49.036;12.112;2022-11-15T10:59:50;25.57;;;10.77;;
21095;SDS011;10706;49.036;12.112;2022-11-15T11:02:34;22.63;;;9.17;;
21095;SDS011;10706;49.036;12.112;2022-11-15T11:05:20;23.27;;;9.57;;
21095;SDS011;10706;49.036;12.112;2022-11-15T11:08:00;31.67;;;12.93;;
21095;SDS011;10706;49.036;12.112;2022-11-15T11:10:36;27.75;;;12.27;;
21095;SDS011;10706;49.036;12.112;2022-11-15T11:13:19;17.77;;;7.70;;
21095;SDS011;10706;49.036;12.112;2022-11-15T11:15:50;17.35;;;7.57;;
21095;SDS011;10706;49.036;12.112;2022-11-15T11:18:34;13.15;;;5.93;;
21095;SDS011;10706;49.036;12.112;2022-11-15T11:30:50;16.15;;;6.65;;
21095;SDS011;10706;49.036;12.112;2022-11-15T11:33:39;19.95;;;7.47;;
21095;SDS011;10706;49.036;12.112;2022-11-15T11:37:03;15.25;;;6.22;;
21095;SDS011;10706;49.036;12.112;2022-11-15T11:49:02;15.15;;;5.65;;
21095;SDS011;10706;49.036;12.112;2022-11-15T11:51:39;14.25;;;6.03;;
21095;SDS011;10706;49.036;12.112;2022-11-15T11:54:33;14.57;;;5.97;;
21095;SDS011;10706;49.036;12.112;2022-11-15T11:57:28;15.80;;;6.40;;
21095;SDS011;10706;49.036;12.112;2022-11-15T12:00:13;22.10;;;6.30;;
21095;SDS011;10706;49.036;12.112;2022-11-15T12:06:09;15.13;;;5.50;;
21095;SDS011;10706;49.036;12.112;2022-11-15T12:12:01;16.65;;;5.72;;
21095;SDS011;10706;49.036;12.112;2022-11-15T12:15:03;14.95;;;5.78;;
21095;SDS011;10706;49.036;12.112;2022-11-15T12:17:41;12.15;;;5.55;;
21095;SDS011;10706;49.036;12.112;2022-11-15T12:31:10;12.18;;;5.38;;
21095;SDS011;10706;49.036;12.112;2022-11-15T12:33:42;13.02;;;5.18;;
21095;SDS011;10706;49.036;12.112;2022-11-15T12:36:11;12.05;;;5.13;;
21095;SDS011;10706;49.036;12.112;2022-11-15T12:38:59;12.80;;;5.43;;
21095;SDS011;10706;49.036;12.112;2022-11-15T12:41:37;13.82;;;5.22;;
21095;SDS011;10706;49.036;12.112;2022-11-15T12:44:11;17.30;;;5.10;;
21095;SDS011;10706;49.036;12.112;2022-11-15T13:02:20;13.95;;;5.78;;
21095;SDS011;10706;49.036;12.112;2022-11-15T13:17:42;13.57;;;5.03;;
21095;SDS011;10706;49.036;12.112;2022-11-15T13:20:20;13.52;;;5.30;;
21095;SDS011;10706;49.036;12.112;2022-11-15T13:22:59;12.05;;;5.00;;
21095;SDS011;10706;49.036;12.112;2022-11-15T13:28:42;13.07;;;5.35;;
21095;SDS011;10706;49.036;12.112;2022-11-15T13:34:41;11.73;;;4.57;;
21095;SDS011;10706;49.036;12.112;2022-11-15T13:37:02;13.20;;;4.97;;
21095;SDS011;10706;49.036;12.112;2022-11-15T13:39:52;12.10;;;4.63;;
21095;SDS011;10706;49.036;12.112;2022-11-15T13:42:19;12.68;;;4.45;;
21095;SDS011;10706;49.036;12.112;2022-11-15T13:44:56;12.55;;;4.85;;
21095;SDS011;10706;49.036;12.112;2022-11-15T13:47:28;14.52;;;4.80;;
21095;SDS011;10706;49.036;12.112;2022-11-15T13:49:58;15.40;;;5.07;;
21095;SDS011;10706;49.036;12.112;2022-11-15T13:52:30;12.15;;;4.15;;
21095;SDS011;10706;49.036;12.112;2022-11-15T13:55:04;12.63;;;5.00;;
21095;SDS011;10706;49.036;12.112;2022-11-15T13:57:45;12.07;;;4.90;;
21095;SDS011;10706;49.036;12.112;2022-11-15T14:02:55;14.38;;;4.60;;
21095;SDS011;10706;49.036;12.112;2022-11-15T14:05:23;18.23;;;5.90;;
21095;SDS011;10706;49.036;12.112;2022-11-15T14:12:59;11.65;;;4.70;;
21095;SDS011;10706;49.036;12.112;2022-11-15T14:15:38;12.77;;;4.53;;
21095;SDS011;10706;49.036;12.112;2022-11-15T14:18:05;11.55;;;4.60;;
21095;SDS011;10706;49.036;12.112;2022-11-15T14:42:30;15.98;;;5.72;;
21095;SDS011;10706;49.036;12.112;2022-11-15T14:44:56;15.85;;;5.65;;
21095;SDS011;10706;49.036;12.112;2022-11-15T14:47:22;17.65;;;6.35;;
21095;SDS011;10706;49.036;12.112;2022-11-15T14:49:48;16.77;;;6.25;;
21095;SDS011;10706;49.036;12.112;2022-11-15T14:54:55;17.35;;;6.93;;
21095;SDS011;10706;49.036;12.112;2022-11-15T14:57:22;17.30;;;6.80;;
21095;SDS011;10706;49.036;12.112;2022-11-15T14:59:48;19.55;;;7.30;;
21095;SDS011;10706;49.036;12.112;2022-11-15T15:02:16;20.02;;;7.60;;
21095;SDS011;10706;49.036;12.112;2022-11-15T15:04:51;19.38;;;7.80;;
21095;SDS011;10706;49.036;12.112;2022-11-15T15:07:18;18.90;;;7.75;;
21095;SDS011;10706;49.036;12.112;2022-11-15T15:09:45;21.30;;;7.03;;
21095;SDS011;10706;49.036;12.112;2022-11-15T15:12:15;17.55;;;7.13;;
21095;SDS011;10706;49.036;12.112;2022-11-15T15:14:46;20.65;;;7.38;;
21095;SDS011;10706;49.036;12.112;2022-11-15T15:17:14;18.10;;;7.68;;
21095;SDS011;10706;49.036;12.112;2022-11-15T15:19:44;18.17;;;7.55;;
21095;SDS011;10706;49.036;12.112;2022-11-15T15:22:12;22.25;;;7.93;;
21095;SDS011;10706;49.036;12.112;2022-11-15T15:24:43;16.33;;;7.35;;
21095;SDS011;10706;49.036;12.112;2022-11-15T15:27:13;17.98;;;7.80;;
21095;SDS011;10706;49.036;12.112;2022-11-15T15:29:42;17.77;;;7.63;;
21095;SDS011;10706;49.036;12.112;2022-11-15T15:32:08;23.38;;;8.75;;
21095;SDS011;10706;49.036;12.112;2022-11-15T15:34:35;20.23;;;8.15;;
21095;SDS011;10706;49.036;12.112;2022-11-15T15:37:08;19.50;;;7.45;;
21095;SDS011;10706;49.036;12.112;2022-11-15T15:39:44;16.00;;;6.93;;
21095;SDS011;10706;49.036;12.112;2022-11-15T15:42:10;17.55;;;7.68;;
21095;SDS011;10706;49.036;12.112;2022-11-15T15:44:36;19.75;;;7.78;;
21095;SDS011;10706;49.036;12.112;2022-11-15T15:47:03;17.00;;;8.05;;
21095;SDS011;10706;49.036;12.112;2022-11-15T15:49:36;19.40;;;7.70;;
21095;SDS011;10706;49.036;12.112;2022-11-15T15:52:02;18.20;;;7.60;;
21095;SDS011;10706;49.036;12.112;2022-11-15T15:54:28;21.40;;;9.47;;
21095;SDS011;10706;49.036;12.112;2022-11-15T15:56:54;20.00;;;9.50;;
21095;SDS011;10706;49.036;12.112;2022-11-15T15:59:20;19.73;;;8.57;;
21095;SDS011;10706;49.036;12.112;2022-11-15T16:01:45;17.77;;;7.70;;
21095;SDS011;10706;49.036;12.112;2022-11-15T16:04:11;21.13;;;9.20;;
21095;SDS011;10706;49.036;12.112;2022-11-15T16:06:38;18.23;;;8.67;;
21095;SDS011;10706;49.036;12.112;2022-11-15T16:09:10;22.90;;;8.97;;
21095;SDS011;10706;49.036;12.112;2022-11-15T16:11:43;23.70;;;10.57;;
21095;SDS011;10706;49.036;12.112;2022-11-15T16:14:10;20.20;;;11.30;;
21095;SDS011;10706;49.036;12.112;2022-11-15T16:16:36;22.93;;;10.90;;
21095;SDS011;10706;49.036;12.112;2022-11-15T16:19:03;25.43;;;11.87;;
21095;SDS011;10706;49.036;12.112;2022-11-15T16:21:29;22.80;;;11.10;;
21095;SDS011;10706;49.036;12.112;2022-11-15T16:23:55;22.33;;;9.77;;
21095;SDS011;10706;49.036;12.112;2022-11-15T16:26:27;22.53;;;9.03;;
21095;SDS011;10706;49.036;12.112;2022-11-15T16:28:55;29.90;;;10.80;;
21095;SDS011;10706;49.036;12.112;2022-11-15T16:31:20;28.20;;;11.77;;
21095;SDS011;10706;49.036;12.112;2022-11-15T16:33:46;27.27;;;11.70;;
21095;SDS011;10706;49.036;12.112;2022-11-15T16:36:15;27.40;;;10.77;;
21095;SDS011;10706;49.036;12.112;2022-11-15T16:38:51;25.20;;;10.87;;
21095;SDS011;10706;49.036;12.112;2022-11-15T16:41:18;23.50;;;11.17;;
21095;SDS011;10706;49.036;12.112;2022-11-15T16:43:47;24.33;;;11.07;;
21095;SDS011;10706;49.036;12.112;2022-11-15T16:46:17;30.23;;;11.23;;
21095;SDS011;10706;49.036;12.112;2022-11-15T16:48:48;22.37;;;10.53;;
21095;SDS011;10706;49.036;12.112;2022-11-15T16:51:15;22.80;;;10.90;;
21095;SDS011;10706;49.036;12.112;2022-11-15T16:53:41;26.00;;;11.77;;
21095;SDS011;10706;49.036;12.112;2022-11-15T16:56:17;26.07;;;10.53;;
21095;SDS011;10706;49.036;12.112;2022-11-15T16:58:45;25.83;;;9.97;;
21095;SDS011;10706;49.036;12.112;2022-11-15T17:01:22;23.47;;;10.37;;
21095;SDS011;10706;49.036;12.112;2022-11-15T17:04:00;25.17;;;11.40;;
21095;SDS011;10706;49.036;12.112;2022-11-15T17:06:36;23.37;;;10.43;;
21095;SDS011;10706;49.036;12.112;2022-11-15T17:09:04;20.07;;;10.70;;